createdAt,value
2023-08-29T00:00:05.974Z,99173.22
2023-08-29T00:02:44.294Z,99170.53
2023-08-29T00:05:11.969Z,99161.75
2023-08-29T00:07:40.090Z,99171.38
2023-08-29T00:10:07.908Z,99175.75
2023-08-29T00:12:35.253Z,99173.97
2023-08-29T00:15:05.155Z,99170.53
2023-08-29T00:17:32.883Z,99179.22
2023-08-29T00:20:00.037Z,99170.47
2023-08-29T00:22:27.233Z,99154.78
2023-08-29T00:24:54.243Z,99191.50
2023-08-29T00:27:21.354Z,99191.59
2023-08-29T00:29:48.473Z,99209.03
2023-08-29T00:32:15.671Z,99191.56
2023-08-29T00:34:43.390Z,99214.28
2023-08-29T00:37:11.857Z,99204.66
2023-08-29T00:39:38.917Z,99180.25
2023-08-29T00:42:06.039Z,99185.53
2023-08-29T00:44:35.069Z,99178.53
2023-08-29T00:47:07.157Z,99200.28
2023-08-29T00:49:36.524Z,99165.31
2023-08-29T00:52:04.769Z,99193.31
2023-08-29T00:54:32.058Z,99195.06
2023-08-29T00:56:59.885Z,99191.56
2023-08-29T00:59:27.090Z,99152.22
2023-08-29T01:01:54.618Z,99177.63
2023-08-29T01:04:21.675Z,99173.25
2023-08-29T01:06:49.009Z,99147.09
2023-08-29T01:09:16.245Z,99179.47
2023-08-29T01:12:00.031Z,99170.69
2023-08-29T01:14:48.313Z,99175.13
2023-08-29T01:17:23.957Z,99169.97
2023-08-29T01:19:53.537Z,99163.88
2023-08-29T01:22:35.737Z,99173.56
2023-08-29T01:25:16.067Z,99147.41
2023-08-29T01:27:43.286Z,99164.94
2023-08-29T01:30:11.135Z,99189.34
2023-08-29T01:32:39.256Z,99184.97
2023-08-29T01:35:07.987Z,99197.16
2023-08-29T01:37:35.068Z,99167.53
2023-08-29T01:40:02.228Z,99216.50
2023-08-29T01:42:30.015Z,99187.69
2023-08-29T01:44:57.136Z,99160.56
2023-08-29T01:47:24.474Z,99200.69
2023-08-29T01:49:52.861Z,99171.81
2023-08-29T01:52:19.946Z,99202.50
2023-08-29T01:54:47.130Z,99192.00
2023-08-29T01:57:15.785Z,99202.53
2023-08-29T01:59:45.232Z,99198.22
2023-08-29T02:02:14.416Z,99206.06
2023-08-29T02:04:42.823Z,99189.44
2023-08-29T02:07:12.244Z,99192.97
2023-08-29T02:09:39.558Z,99150.22
2023-08-29T02:12:06.840Z,99188.66
2023-08-29T02:14:34.099Z,99190.41
2023-08-29T02:17:01.341Z,99206.13
2023-08-29T02:19:29.419Z,99206.16
2023-08-29T02:21:56.489Z,99188.69
2023-08-29T02:24:24.333Z,99163.34
2023-08-29T02:26:51.761Z,99199.22
2023-08-29T02:29:18.832Z,99207.91
2023-08-29T02:31:46.692Z,99179.91
2023-08-29T02:34:13.847Z,99210.53
2023-08-29T02:36:42.013Z,99202.69
2023-08-29T02:39:09.031Z,99185.19
2023-08-29T02:41:38.348Z,99199.16
2023-08-29T02:44:05.701Z,99184.34
2023-08-29T02:46:32.886Z,99206.13
2023-08-29T02:49:00.220Z,99193.91
2023-08-29T02:51:27.274Z,99180.69
2023-08-29T02:53:54.246Z,99208.59
2023-08-29T02:56:21.392Z,99202.41
2023-08-29T02:58:48.705Z,99188.44
2023-08-29T03:01:16.081Z,99191.91
2023-08-29T03:03:43.492Z,99184.00
2023-08-29T03:06:10.668Z,99190.84
2023-08-29T03:08:38.402Z,99185.50
2023-08-29T03:11:05.713Z,99178.41
2023-08-29T03:13:33.573Z,99184.41
2023-08-29T03:16:00.908Z,99207.13
2023-08-29T03:18:28.888Z,99201.78
2023-08-29T03:20:57.394Z,99198.28
2023-08-29T03:23:25.961Z,99201.78
2023-08-29T03:26:07.031Z,99190.34
2023-08-29T03:28:36.465Z,99197.22
2023-08-29T03:31:14.651Z,99194.53
2023-08-29T03:33:42.519Z,99199.72
2023-08-29T03:36:09.977Z,99191.84
2023-08-29T03:38:38.788Z,99175.22
2023-08-29T03:41:07.340Z,99189.09
2023-08-29T03:43:36.050Z,99207.34
2023-08-29T03:46:08.349Z,99190.53
2023-08-29T03:48:37.186Z,99173.88
2023-08-29T03:51:08.161Z,99176.38
2023-08-29T03:53:39.022Z,99186.63
2023-08-29T03:56:09.940Z,99190.09
2023-08-29T03:58:37.076Z,99196.25
2023-08-29T04:01:07.435Z,99193.59
2023-08-29T04:03:35.100Z,99205.56
2023-08-29T04:06:04.730Z,99191.38
2023-08-29T04:08:32.110Z,99192.22
2023-08-29T04:10:59.200Z,99186.13
2023-08-29T04:13:26.295Z,99199.25
2023-08-29T04:15:55.549Z,99179.03
2023-08-29T04:18:24.127Z,99191.03
2023-08-29T04:20:51.115Z,99193.59
2023-08-29T04:23:18.298Z,99179.47
2023-08-29T04:25:45.948Z,99183.53
2023-08-29T04:28:15.618Z,99181.25
2023-08-29T04:30:42.612Z,99185.47
2023-08-29T04:33:09.618Z,99187.88
2023-08-29T04:35:36.711Z,99171.69
2023-08-29T04:38:04.366Z,99174.09
2023-08-29T04:40:31.783Z,99171.41
2023-08-29T04:42:59.427Z,99164.72
2023-08-29T04:45:26.388Z,99187.53
2023-08-29T04:47:53.538Z,99184.94
2023-08-29T04:50:21.714Z,99178.53
2023-08-29T04:52:54.903Z,99170.06
2023-08-29T04:55:22.601Z,99165.75
2023-08-29T04:57:50.492Z,99176.03
2023-08-29T05:00:17.816Z,99187.91
2023-08-29T05:02:44.881Z,99195.91
2023-08-29T05:05:12.381Z,99194.81
2023-08-29T05:07:39.464Z,99203.34
2023-08-29T05:10:08.025Z,99197.09
2023-08-29T05:12:35.085Z,99205.72
2023-08-29T05:15:02.121Z,99212.06
2023-08-29T05:17:33.245Z,99196.34
2023-08-29T05:20:00.474Z,99206.25
2023-08-29T05:22:27.453Z,99203.28
2023-08-29T05:24:54.452Z,99216.31
2023-08-29T05:27:21.903Z,99220.56
2023-08-29T05:29:48.887Z,99214.06
2023-08-29T05:32:15.984Z,99209.66
2023-08-29T05:34:42.994Z,99214.41
2023-08-29T05:37:09.987Z,99202.69
2023-08-29T05:39:36.904Z,99206.84
2023-08-29T05:42:04.138Z,99202.19
2023-08-29T05:44:31.174Z,99201.44
2023-08-29T05:46:58.128Z,99207.38
2023-08-29T05:49:25.154Z,99201.88
2023-08-29T05:51:53.069Z,99200.75
2023-08-29T05:54:20.148Z,99195.22
2023-08-29T05:56:47.213Z,99196.53
2023-08-29T05:59:14.120Z,99194.00
2023-08-29T06:01:41.143Z,99186.38
2023-08-29T06:04:09.411Z,99170.22
2023-08-29T06:06:37.038Z,99171.13
2023-08-29T06:09:04.398Z,99180.94
2023-08-29T06:11:31.433Z,99190.72
2023-08-29T06:13:58.410Z,99188.34
2023-08-29T06:16:25.621Z,99190.50
2023-08-29T06:18:52.687Z,99203.91
2023-08-29T06:21:20.615Z,99191.75
2023-08-29T06:23:47.764Z,99204.09
2023-08-29T06:26:14.805Z,99191.91
2023-08-29T06:28:42.053Z,99205.28
2023-08-29T06:31:09.778Z,99210.44
2023-08-29T06:33:38.391Z,99190.31
2023-08-29T06:36:06.053Z,99195.50
2023-08-29T06:38:35.680Z,99199.75
2023-08-29T06:41:04.365Z,99200.72
2023-08-29T06:43:32.009Z,99197.34
2023-08-29T06:45:59.061Z,99200.06
2023-08-29T06:48:26.148Z,99212.44
2023-08-29T06:50:53.274Z,99204.44
2023-08-29T06:53:20.392Z,99211.91
2023-08-29T06:55:48.620Z,99219.16
2023-08-29T06:58:15.625Z,99224.22
2023-08-29T07:00:42.618Z,99227.59
2023-08-29T07:03:09.832Z,99233.88
2023-08-29T07:05:36.929Z,99228.53
2023-08-29T07:08:05.340Z,99233.56
2023-08-29T07:10:32.641Z,99204.63
2023-08-29T07:12:59.886Z,99232.47
2023-08-29T07:15:27.119Z,99233.22
2023-08-29T07:17:55.112Z,99232.03
2023-08-29T07:20:22.210Z,99221.34
2023-08-29T07:22:49.503Z,99219.47
2023-08-29T07:25:19.261Z,99224.34
2023-08-29T07:27:47.045Z,99233.13
2023-08-29T07:30:16.613Z,99229.25
2023-08-29T07:32:44.842Z,99224.50
2023-08-29T07:35:12.070Z,99217.53
2023-08-29T07:37:39.084Z,99222.31
2023-08-29T07:40:06.475Z,99218.63
2023-08-29T07:42:33.475Z,99220.41
2023-08-29T07:45:00.965Z,99208.66
2023-08-29T07:47:27.965Z,99226.47
2023-08-29T07:49:54.973Z,99230.03
2023-08-29T07:52:22.037Z,99221.84
2023-08-29T07:54:49.062Z,99218.94
2023-08-29T07:57:15.985Z,99219.53
2023-08-29T07:59:43.142Z,99185.31
2023-08-29T08:02:10.271Z,99220.69
2023-08-29T08:04:38.072Z,99225.59
2023-08-29T08:07:05.273Z,99231.53
2023-08-29T08:09:32.795Z,99226.75
2023-08-29T08:11:59.879Z,99229.06
2023-08-29T08:14:26.924Z,99238.88
2023-08-29T08:16:53.978Z,99240.94
2023-08-29T08:19:21.140Z,99224.88
2023-08-29T08:21:50.851Z,99228.16
2023-08-29T08:24:18.429Z,99237.84
2023-08-29T08:26:45.425Z,99237.53
2023-08-29T08:29:12.442Z,99220.97
2023-08-29T08:31:39.561Z,99229.47
2023-08-29T08:34:06.631Z,99219.94
2023-08-29T08:36:33.931Z,99233.47
2023-08-29T08:39:00.977Z,99233.78
2023-08-29T08:41:28.328Z,99210.97
2023-08-29T08:43:58.320Z,99222.16
2023-08-29T08:46:25.896Z,99227.72
2023-08-29T08:48:54.842Z,99224.84
2023-08-29T08:51:23.859Z,99229.22
2023-08-29T08:53:51.582Z,99229.31
2023-08-29T08:56:18.859Z,99220.88
2023-08-29T08:58:46.385Z,99224.38
2023-08-29T09:01:14.400Z,99226.19
2023-08-29T09:03:42.912Z,99215.22
2023-08-29T09:06:14.018Z,99220.00
2023-08-29T09:08:41.408Z,99223.31
2023-08-29T09:11:08.517Z,99221.50
2023-08-29T09:13:35.800Z,99228.59
2023-08-29T09:16:03.192Z,99226.63
2023-08-29T09:18:33.000Z,99223.00
2023-08-29T09:21:06.000Z,99218.59
2023-08-29T09:23:39.167Z,99219.88
2023-08-29T09:26:06.303Z,99213.56
2023-08-29T09:28:33.349Z,99234.09
2023-08-29T09:31:08.345Z,99234.69
2023-08-29T09:33:36.570Z,99215.22
2023-08-29T09:36:05.958Z,99221.63
2023-08-29T09:38:36.424Z,99225.84
2023-08-29T09:41:03.734Z,99218.41
2023-08-29T09:43:31.608Z,99230.31
2023-08-29T09:45:59.338Z,99218.47
2023-08-29T09:48:26.516Z,99206.88
2023-08-29T09:50:53.581Z,99221.09
2023-08-29T09:53:21.883Z,99220.47
2023-08-29T09:56:11.266Z,99214.09
2023-08-29T09:58:42.758Z,99224.75
2023-08-29T10:01:11.956Z,99194.75
2023-08-29T10:03:41.692Z,99215.19
2023-08-29T10:06:11.698Z,99209.22
2023-08-29T10:09:00.349Z,99176.59
2023-08-29T10:11:32.439Z,99219.50
2023-08-29T10:14:05.658Z,99223.25
2023-08-29T10:16:33.501Z,99230.47
2023-08-29T10:19:00.607Z,99217.53
2023-08-29T10:21:29.379Z,99223.97
2023-08-29T10:23:57.074Z,99223.75
2023-08-29T10:26:26.970Z,99224.13
2023-08-29T10:28:54.648Z,99222.72
2023-08-29T10:31:22.039Z,99216.78
2023-08-29T10:33:49.329Z,99217.66
2023-08-29T10:36:17.887Z,99218.16
2023-08-29T10:38:48.245Z,99227.81
2023-08-29T10:41:15.884Z,99208.53
2023-08-29T10:43:43.718Z,99222.63
2023-08-29T10:46:15.581Z,99227.72
2023-08-29T10:48:45.484Z,99223.38
2023-08-29T10:51:13.289Z,99227.22
2023-08-29T10:53:44.408Z,99214.50
2023-08-29T10:56:11.395Z,99229.63
2023-08-29T10:58:40.665Z,99239.81
2023-08-29T11:01:28.437Z,99235.00
2023-08-29T11:04:05.285Z,99239.41
2023-08-29T11:06:52.217Z,99245.47
2023-08-29T11:09:24.419Z,99249.00
2023-08-29T11:12:14.114Z,99235.78
2023-08-29T11:14:57.836Z,99253.28
2023-08-29T11:17:26.599Z,99251.53
2023-08-29T11:19:55.691Z,99241.91
2023-08-29T11:22:26.998Z,99249.13
2023-08-29T11:24:57.898Z,99230.94
2023-08-29T11:27:30.477Z,99217.22
2023-08-29T11:30:19.538Z,99224.56
2023-08-29T11:32:51.931Z,99231.56
2023-08-29T11:35:19.541Z,99229.09
2023-08-29T11:37:46.524Z,99227.94
2023-08-29T11:40:13.786Z,99206.47
2023-08-29T11:43:19.240Z,99205.53
2023-08-29T11:45:48.283Z,99228.50
2023-08-29T11:48:25.241Z,99219.81
2023-08-29T11:50:54.537Z,99214.47
2023-08-29T11:53:29.245Z,99227.09
2023-08-29T11:55:57.209Z,99225.06
2023-08-29T11:58:34.514Z,99224.66
2023-08-29T12:01:02.897Z,99225.72
2023-08-29T12:03:29.974Z,99232.44
2023-08-29T12:05:59.724Z,99201.75
2023-08-29T12:08:44.063Z,99241.94
2023-08-29T12:11:18.214Z,99229.00
2023-08-29T12:14:02.048Z,99232.59
2023-08-29T12:16:29.920Z,99229.41
2023-08-29T12:19:13.493Z,99230.22
2023-08-29T12:21:40.762Z,99228.75
2023-08-29T12:24:11.818Z,99223.88
2023-08-29T12:26:39.292Z,99210.13
2023-08-29T12:29:06.239Z,99212.06
2023-08-29T12:31:33.463Z,99228.34
2023-08-29T12:34:00.506Z,99206.38
2023-08-29T12:36:27.471Z,99222.72
2023-08-29T12:38:54.449Z,99226.06
2023-08-29T12:41:22.505Z,99209.81
2023-08-29T12:43:50.338Z,99200.38
2023-08-29T12:46:17.392Z,99217.28
2023-08-29T12:48:46.474Z,99218.50
2023-08-29T12:51:13.425Z,99223.41
2023-08-29T12:53:41.301Z,99214.69
2023-08-29T12:56:11.571Z,99223.56
2023-08-29T12:58:39.171Z,99199.66
2023-08-29T13:01:06.519Z,99209.00
2023-08-29T13:03:34.088Z,99187.78
2023-08-29T13:06:01.186Z,99201.50
2023-08-29T13:08:28.414Z,99204.88
2023-08-29T13:10:55.414Z,99194.59
2023-08-29T13:13:22.532Z,99208.19
2023-08-29T13:15:51.474Z,99217.00
2023-08-29T13:18:19.806Z,99205.13
2023-08-29T13:20:46.933Z,99213.78
2023-08-29T13:23:13.998Z,99206.47
2023-08-29T13:25:41.201Z,99208.75
2023-08-29T13:28:08.611Z,99199.13
2023-08-29T13:30:36.329Z,99201.66
2023-08-29T13:33:04.789Z,99209.53
2023-08-29T13:35:31.998Z,99198.16
2023-08-29T13:37:59.032Z,99207.25
2023-08-29T13:40:26.067Z,99217.66
2023-08-29T13:42:53.619Z,99206.94
2023-08-29T13:45:21.032Z,99211.50
2023-08-29T13:47:48.651Z,99181.06
2023-08-29T13:50:16.216Z,99213.44
2023-08-29T13:52:43.337Z,99205.38
2023-08-29T13:55:10.580Z,99215.94
2023-08-29T13:57:37.826Z,99205.50
2023-08-29T14:00:06.590Z,99188.19
2023-08-29T14:02:40.792Z,99214.34
2023-08-29T14:05:09.584Z,99206.50
2023-08-29T14:07:37.583Z,99196.13
2023-08-29T14:10:05.068Z,99196.38
2023-08-29T14:12:32.258Z,99205.13
2023-08-29T14:15:00.218Z,99193.84
2023-08-29T14:17:28.119Z,99217.97
2023-08-29T14:19:58.022Z,99208.47
2023-08-29T14:22:27.317Z,99213.81
2023-08-29T14:24:54.383Z,99219.31
2023-08-29T14:27:21.434Z,99208.75
2023-08-29T14:29:48.462Z,99206.88
2023-08-29T14:32:15.426Z,99208.75
2023-08-29T14:34:42.312Z,99208.06
2023-08-29T14:37:11.026Z,99216.06
2023-08-29T14:39:38.383Z,99178.50
2023-08-29T14:42:05.671Z,99196.28
2023-08-29T14:44:33.192Z,99213.16
2023-08-29T14:47:00.363Z,99215.69
2023-08-29T14:49:27.434Z,99213.97
2023-08-29T14:51:55.409Z,99210.34
2023-08-29T14:54:22.447Z,99218.31
2023-08-29T14:56:49.450Z,99211.41
2023-08-29T14:59:16.471Z,99219.34
2023-08-29T15:01:43.567Z,99209.69
2023-08-29T15:04:10.576Z,99206.31
2023-08-29T15:06:37.670Z,99233.13
2023-08-29T15:09:08.671Z,99228.22
2023-08-29T15:11:36.106Z,99221.69
2023-08-29T15:14:05.160Z,99218.03
2023-08-29T15:16:32.271Z,99235.00
2023-08-29T15:18:59.479Z,99228.41
2023-08-29T15:21:26.573Z,99226.78
2023-08-29T15:23:53.792Z,99222.03
2023-08-29T15:26:20.715Z,99234.44
2023-08-29T15:28:47.832Z,99225.53
2023-08-29T15:31:14.984Z,99224.13
2023-08-29T15:33:43.165Z,99230.63
2023-08-29T15:36:11.780Z,99228.25
2023-08-29T15:38:40.667Z,99240.75
2023-08-29T15:41:08.102Z,99221.66
2023-08-29T15:43:35.165Z,99230.09
2023-08-29T15:46:02.263Z,99228.38
2023-08-29T15:48:29.499Z,99225.81
2023-08-29T15:50:56.540Z,99225.09
2023-08-29T15:53:23.574Z,99236.69
2023-08-29T15:55:50.752Z,99233.31
2023-08-29T15:58:19.977Z,99218.88
2023-08-29T16:00:47.097Z,99234.50
2023-08-29T16:03:14.213Z,99231.19
2023-08-29T16:05:41.252Z,99245.88
2023-08-29T16:08:09.962Z,99239.63
2023-08-29T16:10:37.192Z,99219.31
2023-08-29T16:13:04.381Z,99242.81
2023-08-29T16:15:31.366Z,99237.63
2023-08-29T16:17:58.381Z,99221.00
2023-08-29T16:20:25.448Z,99230.22
2023-08-29T16:22:52.967Z,99226.97
2023-08-29T16:25:20.036Z,99245.25
2023-08-29T16:27:47.075Z,99246.19
2023-08-29T16:30:15.358Z,99244.56
2023-08-29T16:32:42.335Z,99228.00
2023-08-29T16:35:10.094Z,99233.09
2023-08-29T16:37:38.640Z,99235.88
2023-08-29T16:40:09.193Z,99253.16
2023-08-29T16:42:36.829Z,99255.09
2023-08-29T16:45:05.491Z,99260.25
2023-08-29T16:47:32.862Z,99258.69
2023-08-29T16:49:59.905Z,99246.41
2023-08-29T16:52:28.224Z,99269.22
2023-08-29T16:54:55.335Z,99266.66
2023-08-29T16:57:22.561Z,99267.50
2023-08-29T17:00:11.518Z,99262.16
2023-08-29T17:02:38.754Z,99257.69
2023-08-29T17:05:06.273Z,99249.91
2023-08-29T17:07:33.466Z,99259.72
2023-08-29T17:10:00.976Z,99265.97
2023-08-29T17:12:31.689Z,99243.38
2023-08-29T17:14:59.018Z,99258.25
2023-08-29T17:17:26.233Z,99274.19
2023-08-29T17:19:53.568Z,99266.50
2023-08-29T17:22:20.654Z,99270.31
2023-08-29T17:24:47.964Z,99263.53
2023-08-29T17:27:15.102Z,99254.66
2023-08-29T17:29:42.335Z,99265.91
2023-08-29T17:32:09.512Z,99265.63
2023-08-29T17:34:38.021Z,99275.53
2023-08-29T17:37:05.250Z,99268.56
2023-08-29T17:39:32.341Z,99254.75
2023-08-29T17:41:59.435Z,99273.75
2023-08-29T17:44:26.628Z,99273.72
2023-08-29T17:46:53.635Z,99259.59
2023-08-29T17:49:20.646Z,99257.19
2023-08-29T17:51:49.116Z,99252.59
2023-08-29T17:54:16.277Z,99254.25
2023-08-29T17:56:43.271Z,99257.69
2023-08-29T17:59:10.236Z,99256.94
2023-08-29T18:01:37.388Z,99257.94
2023-08-29T18:04:08.521Z,99246.72
2023-08-29T18:06:36.402Z,99238.09
2023-08-29T18:09:03.764Z,99258.34
2023-08-29T18:11:31.189Z,99263.81
2023-08-29T18:13:58.484Z,99272.75
2023-08-29T18:16:25.655Z,99258.66
2023-08-29T18:18:53.029Z,99253.66
2023-08-29T18:21:20.090Z,99266.09
2023-08-29T18:23:47.130Z,99259.91
2023-08-29T18:26:14.486Z,99269.59
2023-08-29T18:28:41.895Z,99274.81
2023-08-29T18:31:10.782Z,99248.38
2023-08-29T18:33:37.953Z,99269.28
2023-08-29T18:36:05.487Z,99255.16
2023-08-29T18:38:32.855Z,99235.16
2023-08-29T18:41:00.505Z,99257.81
2023-08-29T18:43:28.675Z,99258.75
2023-08-29T18:45:57.057Z,99258.75
2023-08-29T18:48:25.287Z,99256.19
2023-08-29T18:50:53.382Z,99253.75
2023-08-29T18:53:23.701Z,99244.84
2023-08-29T18:55:52.000Z,99253.66
2023-08-29T18:58:19.805Z,99262.53
2023-08-29T19:00:48.172Z,99253.66
2023-08-29T19:03:16.509Z,99244.03
2023-08-29T19:05:44.518Z,99244.84
2023-08-29T19:08:12.649Z,99264.16
2023-08-29T19:10:40.850Z,99241.56
2023-08-29T19:13:08.554Z,99237.88
2023-08-29T19:15:36.054Z,99232.56
2023-08-29T19:18:04.674Z,99236.16
2023-08-29T19:20:35.389Z,99234.28
2023-08-29T19:23:02.798Z,99235.94
2023-08-29T19:25:29.942Z,99225.25
2023-08-29T19:27:57.559Z,99237.69
2023-08-29T19:30:24.866Z,99235.25
2023-08-29T19:32:52.079Z,99246.16
2023-08-29T19:35:19.561Z,99249.94
2023-08-29T19:37:47.279Z,99255.25
2023-08-29T19:40:15.465Z,99246.44
2023-08-29T19:42:42.503Z,99255.13
2023-08-29T19:45:10.033Z,99241.94
2023-08-29T19:47:37.188Z,99251.44
2023-08-29T19:50:04.666Z,99235.81
2023-08-29T19:52:32.297Z,99234.88
2023-08-29T19:55:00.666Z,99245.44
2023-08-29T19:57:27.942Z,99242.88
2023-08-29T19:59:55.073Z,99256.00
2023-08-29T20:02:22.153Z,99260.44
2023-08-29T20:04:49.153Z,99265.84
2023-08-29T20:07:16.248Z,99240.56
2023-08-29T20:09:43.273Z,99241.41
2023-08-29T20:12:10.262Z,99246.47
2023-08-29T20:14:37.350Z,99245.50
2023-08-29T20:17:06.402Z,99241.00
2023-08-29T20:19:34.430Z,99244.47
2023-08-29T20:22:01.487Z,99247.13
2023-08-29T20:24:30.652Z,99241.78
2023-08-29T20:26:57.638Z,99234.81
2023-08-29T20:29:24.670Z,99254.13
2023-08-29T20:31:51.720Z,99238.41
2023-08-29T20:34:18.784Z,99250.56
2023-08-29T20:36:49.107Z,99231.13
2023-08-29T20:39:16.669Z,99236.50
2023-08-29T20:41:43.745Z,99230.25
2023-08-29T20:44:10.853Z,99218.06
2023-08-29T20:46:38.170Z,99245.44
2023-08-29T20:49:05.525Z,99247.34
2023-08-29T20:51:34.629Z,99235.09
2023-08-29T20:54:01.712Z,99231.53
2023-08-29T20:56:28.828Z,99246.44
2023-08-29T20:58:55.965Z,99252.59
2023-08-29T21:01:22.952Z,99228.25
2023-08-29T21:03:50.045Z,99265.03
2023-08-29T21:06:17.400Z,99245.59
2023-08-29T21:08:44.463Z,99241.41
2023-08-29T21:11:11.554Z,99217.13
2023-08-29T21:13:38.645Z,99247.34
2023-08-29T21:16:05.736Z,99252.69
2023-08-29T21:18:33.516Z,99260.53
2023-08-29T21:21:02.552Z,99241.41
2023-08-29T21:23:30.224Z,99250.38
2023-08-29T21:25:57.335Z,99256.53
2023-08-29T21:28:28.206Z,99266.16
2023-08-29T21:30:56.020Z,99263.50
2023-08-29T21:33:24.231Z,99261.97
2023-08-29T21:35:52.273Z,99267.16
2023-08-29T21:38:20.022Z,99247.13
2023-08-29T21:40:47.495Z,99238.38
2023-08-29T21:43:23.755Z,99267.75
2023-08-29T21:45:55.888Z,99259.94
2023-08-29T21:48:25.854Z,99252.00
2023-08-29T21:50:53.576Z,99263.41
2023-08-29T21:53:20.610Z,99264.41
2023-08-29T21:55:47.776Z,99254.66
2023-08-29T21:58:20.172Z,99249.56
2023-08-29T22:00:52.122Z,99254.72
2023-08-29T22:03:25.627Z,99277.63
2023-08-29T22:05:53.600Z,99282.94
2023-08-29T22:08:22.158Z,99282.94
2023-08-29T22:10:49.661Z,99272.47
2023-08-29T22:13:16.956Z,99236.69
2023-08-29T22:15:44.156Z,99275.25
2023-08-29T22:18:12.112Z,99267.38
2023-08-29T22:20:39.822Z,99234.56
2023-08-29T22:23:06.901Z,99267.75
2023-08-29T22:25:33.987Z,99275.34
2023-08-29T22:28:01.021Z,99280.75
2023-08-29T22:30:28.388Z,99277.22
2023-08-29T22:32:55.862Z,99279.72
2023-08-29T22:35:23.078Z,99278.91
2023-08-29T22:37:50.189Z,99267.66
2023-08-29T22:40:18.058Z,99252.81
2023-08-29T22:42:47.739Z,99279.81
2023-08-29T22:45:15.284Z,99257.41
2023-08-29T22:47:44.388Z,99281.66
2023-08-29T22:50:11.547Z,99244.16
2023-08-29T22:52:42.389Z,99244.47
2023-08-29T22:55:10.427Z,99283.50
2023-08-29T22:57:37.731Z,99253.84
2023-08-29T23:00:07.211Z,99254.69
2023-08-29T23:02:34.369Z,99276.31
2023-08-29T23:05:05.806Z,99281.56
2023-08-29T23:07:33.713Z,99272.13
2023-08-29T23:10:00.790Z,99280.69
2023-08-29T23:12:28.690Z,99271.97
2023-08-29T23:14:55.888Z,99259.94
2023-08-29T23:17:23.064Z,99261.69
2023-08-29T23:20:09.301Z,99283.31
2023-08-29T23:22:36.780Z,99283.22
2023-08-29T23:25:05.826Z,99287.66
2023-08-29T23:27:33.226Z,99290.28
2023-08-29T23:30:00.272Z,99281.47
2023-08-29T23:32:27.704Z,99262.50
2023-08-29T23:34:59.200Z,99268.34
2023-08-29T23:37:26.373Z,99237.09
2023-08-29T23:39:53.500Z,99260.78
2023-08-29T23:42:20.589Z,99279.72
2023-08-29T23:44:49.459Z,99286.78
2023-08-29T23:47:16.791Z,99245.75
2023-08-29T23:49:43.935Z,99287.63
2023-08-29T23:52:11.050Z,99282.22
2023-08-29T23:54:37.955Z,99278.88
2023-08-29T23:57:05.899Z,99275.22
2023-08-29T23:59:32.979Z,99270.03
